Time;durP1;ratioP1;P1;durP2;ratioP2;P2;SDS_P1;SDS_P2;PMS_P1;PMS_P2;Temp;Humidity;BMP_temperature;BMP_pressure;BME280_temperature;BME280_humidity;BME280_pressure;Samples;Min_cycle;Max_cycle;Signal;HPM_P1;HPM_P2
2024/01/02 00:01:38;;;;;;;35.55;6.95;;;10.30;99.90;;;;;;5094271;28;20024;-80
2024/01/02 00:04:04;;;;;;;33.60;5.40;;;10.30;99.90;;;;;;5113358;28;20020;-78
2024/01/02 00:06:30;;;;;;;36.60;6.32;;;10.30;99.90;;;;;;5112624;28;20380;-79
2024/01/02 00:08:55;;;;;;;33.53;5.93;;;10.30;99.90;;;;;;5094898;28;20065;-79
2024/01/02 00:11:21;;;;;;;36.40;6.07;;;10.30;99.90;;;;;;5112842;28;20016;-81
2024/01/02 00:13:47;;;;;;;30.35;5.95;;;10.20;99.90;;;;;;5094000;28;20360;-79
2024/01/02 00:16:13;;;;;;;33.58;5.20;;;10.20;99.90;;;;;;5112941;28;20030;-79
2024/01/02 00:18:39;;;;;;;31.25;5.70;;;10.30;99.90;;;;;;5112330;28;20016;-79
2024/01/02 00:21:05;;;;;;;37.30;6.28;;;10.30;99.90;;;;;;5112563;28;20099;-80
2024/01/02 00:23:31;;;;;;;38.20;5.90;;;10.20;99.90;;;;;;5111653;28;20051;-78
2024/01/02 00:25:56;;;;;;;34.55;6.10;;;10.30;99.90;;;;;;5112696;28;20104;-79
2024/01/02 00:28:22;;;;;;;27.17;5.18;;;10.30;99.90;;;;;;5116221;27;20054;-81
2024/01/02 00:30:48;;;;;;;32.00;5.43;;;10.30;99.90;;;;;;5144775;27;20018;-79
2024/01/02 00:33:14;;;;;;;32.22;5.97;;;10.30;99.90;;;;;;5154088;27;20026;-79
2024/01/02 00:35:41;;;;;;;30.92;5.88;;;10.30;99.90;;;;;;5134129;27;20090;-79
2024/01/02 00:38:10;;;;;;;27.52;5.65;;;10.30;99.90;;;;;;5153550;27;20365;-79
2024/01/02 00:40:36;;;;;;;23.70;5.75;;;10.30;99.90;;;;;;5152340;27;20033;-80
2024/01/02 00:43:02;;;;;;;27.02;5.20;;;10.30;99.90;;;;;;5153286;27;20022;-80
2024/01/02 00:45:28;;;;;;;32.08;5.70;;;10.30;99.90;;;;;;5152696;27;20080;-80
2024/01/02 00:47:54;;;;;;;29.30;4.88;;;10.30;99.90;;;;;;5153356;27;20463;-80
2024/01/02 00:50:21;;;;;;;34.25;6.50;;;10.30;99.90;;;;;;5153040;27;20360;-79
2024/01/02 00:52:47;;;;;;;31.75;5.75;;;10.20;99.90;;;;;;5153354;27;20171;-80
2024/01/02 00:55:13;;;;;;;34.63;5.38;;;10.10;99.90;;;;;;5152814;27;20072;-78
2024/01/02 00:57:39;;;;;;;36.88;5.40;;;10.10;99.90;;;;;;5124827;27;20103;-80
2024/01/02 01:00:06;;;;;;;34.55;5.53;;;10.00;99.90;;;;;;5132548;27;20023;-81
2024/01/02 01:02:31;;;;;;;31.20;5.28;;;9.90;99.90;;;;;;5132376;27;20095;-81
2024/01/02 01:04:57;;;;;;;30.70;5.82;;;9.90;99.90;;;;;;5114043;27;20052;-80
2024/01/02 01:07:23;;;;;;;28.55;4.80;;;9.80;99.90;;;;;;5132462;27;20023;-80
2024/01/02 01:09:49;;;;;;;32.63;5.63;;;9.70;99.90;;;;;;5132309;27;20030;-79
2024/01/02 01:12:14;;;;;;;24.48;4.53;;;9.70;99.90;;;;;;5132224;27;20023;-78
2024/01/02 01:14:40;;;;;;;30.42;5.00;;;9.50;99.90;;;;;;5131944;27;20023;-79
2024/01/02 01:17:06;;;;;;;30.25;4.95;;;9.60;99.90;;;;;;5132326;27;20034;-79
2024/01/02 01:19:33;;;;;;;27.33;4.82;;;9.50;99.90;;;;;;5132399;27;20095;-79
2024/01/02 01:21:59;;;;;;;26.35;4.03;;;9.50;99.90;;;;;;5132991;27;20023;-79
2024/01/02 01:24:24;;;;;;;23.17;4.20;;;9.50;99.90;;;;;;5113365;27;20023;-80
2024/01/02 01:26:52;;;;;;;26.60;4.40;;;9.50;99.90;;;;;;5132247;27;20044;-80
2024/01/02 01:29:22;;;;;;;19.90;3.60;;;9.50;99.90;;;;;;5132369;27;20023;-80
2024/01/02 01:31:48;;;;;;;31.25;4.85;;;9.40;99.90;;;;;;5113226;27;20133;-80
2024/01/02 01:34:14;;;;;;;24.40;4.28;;;9.40;99.90;;;;;;5132278;27;20019;-80
2024/01/02 01:36:40;;;;;;;32.85;5.15;;;9.40;99.90;;;;;;5096383;27;20466;-80
2024/01/02 01:39:06;;;;;;;25.90;4.97;;;9.30;99.90;;;;;;5132284;27;20023;-80
2024/01/02 01:41:32;;;;;;;26.42;4.68;;;9.30;99.90;;;;;;5131508;27;20147;-81
2024/01/02 01:43:58;;;;;;;21.65;4.30;;;9.30;99.90;;;;;;5113752;28;20080;-80
2024/01/02 01:46:28;;;;;;;25.15;5.10;;;9.30;99.90;;;;;;5132173;27;20102;-80
2024/01/02 01:48:54;;;;;;;25.25;4.72;;;9.40;99.90;;;;;;5131999;27;20015;-80
2024/01/02 01:51:21;;;;;;;28.38;4.65;;;9.40;99.90;;;;;;5131923;27;20030;-80
2024/01/02 01:53:47;;;;;;;26.58;4.63;;;9.40;99.90;;;;;;5131240;27;20116;-80
2024/01/02 01:56:13;;;;;;;26.85;4.45;;;9.30;99.90;;;;;;5132680;28;20098;-80
2024/01/02 01:58:39;;;;;;;28.23;4.75;;;9.40;99.90;;;;;;5131688;28;20027;-80
2024/01/02 02:01:05;;;;;;;25.27;4.20;;;9.40;99.90;;;;;;5113658;28;20023;-79
2024/01/02 02:03:32;;;;;;;26.23;4.90;;;9.50;99.90;;;;;;5131507;28;20110;-79
2024/01/02 02:05:58;;;;;;;20.63;4.22;;;9.50;99.90;;;;;;5132454;28;20029;-80
2024/01/02 02:08:24;;;;;;;24.20;4.60;;;9.50;99.90;;;;;;5131867;28;20098;-80
2024/01/02 02:10:49;;;;;;;23.80;3.67;;;9.50;99.90;;;;;;5131756;28;20051;-80
2024/01/02 02:13:16;;;;;;;21.70;4.30;;;9.40;99.90;;;;;;5113537;28;20055;-80
2024/01/02 02:15:42;;;;;;;25.65;3.92;;;9.40;99.90;;;;;;5131621;28;20015;-80
2024/01/02 02:18:09;;;;;;;24.77;4.45;;;9.30;99.90;;;;;;5113668;28;20333;-81
2024/01/02 02:20:34;;;;;;;23.25;4.10;;;9.30;99.90;;;;;;5131751;28;20392;-81
2024/01/02 02:23:00;;;;;;;29.65;5.07;;;9.30;99.90;;;;;;5131837;28;20106;-80
2024/01/02 02:25:27;;;;;;;18.83;3.72;;;9.30;99.90;;;;;;5131506;28;20015;-79
2024/01/02 02:27:53;;;;;;;25.27;3.92;;;9.30;99.90;;;;;;5131266;28;20475;-80
2024/01/02 02:30:19;;;;;;;25.80;4.30;;;9.30;99.90;;;;;;5113110;28;20023;-84
2024/01/02 02:32:45;;;;;;;27.73;3.88;;;9.30;99.90;;;;;;5131079;28;20023;-82
2024/01/02 02:35:10;;;;;;;24.42;4.13;;;9.30;99.90;;;;;;5131840;28;20106;-82
2024/01/02 02:37:36;;;;;;;24.17;3.72;;;9.30;99.90;;;;;;5112744;28;20029;-82
2024/01/02 02:40:03;;;;;;;25.63;4.57;;;9.20;99.90;;;;;;5113452;28;20365;-82
2024/01/02 02:42:29;;;;;;;23.15;3.80;;;9.20;99.90;;;;;;5131523;28;20067;-82
2024/01/02 02:44:55;;;;;;;22.60;3.78;;;9.10;99.90;;;;;;5131120;28;20424;-82
2024/01/02 02:47:22;;;;;;;24.10;3.80;;;9.10;99.90;;;;;;5131597;28;20026;-81
2024/01/02 02:49:49;;;;;;;25.90;4.57;;;9.10;99.90;;;;;;5131218;28;20042;-81
2024/01/02 02:52:15;;;;;;;23.92;4.25;;;9.00;99.90;;;;;;5113750;28;20523;-81
2024/01/02 02:54:42;;;;;;;23.48;3.75;;;9.00;99.90;;;;;;5130911;28;20127;-82
2024/01/02 02:57:07;;;;;;;25.05;4.28;;;9.00;99.90;;;;;;5113002;28;20069;-81
2024/01/02 02:59:33;;;;;;;26.40;4.93;;;9.00;99.90;;;;;;5130961;28;20441;-81
2024/01/02 03:01:59;;;;;;;25.92;3.65;;;9.00;99.90;;;;;;5132283;27;20027;-81
2024/01/02 03:04:24;;;;;;;25.00;4.47;;;9.00;99.90;;;;;;5135317;27;20023;-81
2024/01/02 03:06:50;;;;;;;29.08;4.82;;;9.00;99.90;;;;;;5116102;27;20038;-81
2024/01/02 03:09:16;;;;;;;23.98;4.50;;;9.00;99.90;;;;;;5134431;27;20015;-81
2024/01/02 03:11:44;;;;;;;24.23;4.28;;;8.90;99.90;;;;;;5134470;27;20019;-81
2024/01/02 03:14:10;;;;;;;21.55;4.78;;;9.00;99.90;;;;;;5116254;27;20452;-81
2024/01/02 03:16:35;;;;;;;20.73;3.60;;;9.10;99.90;;;;;;5115889;27;20075;-82
2024/01/02 03:19:02;;;;;;;22.38;3.78;;;9.10;99.90;;;;;;5134447;27;20029;-81
2024/01/02 03:21:28;;;;;;;24.17;3.83;;;9.10;99.90;;;;;;5116846;27;20060;-81
2024/01/02 03:23:58;;;;;;;30.15;4.00;;;9.10;99.90;;;;;;5134307;27;20058;-81
2024/01/02 03:26:23;;;;;;;28.73;4.30;;;9.10;99.90;;;;;;5135077;27;20084;-81
2024/01/02 03:28:49;;;;;;;21.08;4.03;;;9.10;99.90;;;;;;5135583;27;20015;-81
2024/01/02 03:31:15;;;;;;;28.67;4.68;;;9.10;99.90;;;;;;5120015;27;20019;-81
2024/01/02 03:33:41;;;;;;;22.65;4.40;;;9.20;99.90;;;;;;5137860;27;20519;-81
2024/01/02 03:36:18;;;;;;;26.35;3.95;;;9.20;99.90;;;;;;5120721;27;20019;-81
2024/01/02 03:38:45;;;;;;;17.65;3.75;;;9.20;99.90;;;;;;5119304;27;20019;-81
2024/01/02 03:41:11;;;;;;;23.63;3.80;;;9.20;99.90;;;;;;5119454;27;20055;-83
2024/01/02 03:43:37;;;;;;;22.48;4.38;;;9.30;99.90;;;;;;5135600;27;20027;-82
2024/01/02 03:46:03;;;;;;;23.50;3.70;;;9.40;99.90;;;;;;5134890;27;20023;-82
2024/01/02 03:48:29;;;;;;;20.95;3.55;;;9.40;99.90;;;;;;5134303;27;20023;-82
2024/01/02 03:50:55;;;;;;;23.08;3.58;;;9.40;99.90;;;;;;5133415;27;20023;-82
2024/01/02 03:53:20;;;;;;;16.73;3.40;;;9.50;99.90;;;;;;5134057;27;20026;-82
2024/01/02 03:55:47;;;;;;;24.30;3.55;;;9.50;99.90;;;;;;5133441;27;20050;-81
2024/01/02 03:58:13;;;;;;;31.85;3.85;;;9.60;99.90;;;;;;5133935;27;20023;-84
2024/01/02 04:00:39;;;;;;;22.08;3.67;;;9.50;99.90;;;;;;5133318;27;20034;-83
2024/01/02 04:03:06;;;;;;;14.73;3.78;;;9.60;99.90;;;;;;5114894;27;20030;-82
2024/01/02 04:05:32;;;;;;;18.92;3.58;;;9.60;99.90;;;;;;5133732;27;20023;-80
2024/01/02 04:07:58;;;;;;;21.48;3.20;;;9.60;99.90;;;;;;5133457;27;20034;-84
2024/01/02 04:10:23;;;;;;;20.55;3.42;;;9.60;99.90;;;;;;5134137;27;20023;-83
2024/01/02 04:12:49;;;;;;;23.67;3.97;;;9.70;99.90;;;;;;5132748;27;20349;-81
2024/01/02 04:15:15;;;;;;;21.98;4.30;;;9.70;99.90;;;;;;5133245;27;20027;-82
2024/01/02 04:17:41;;;;;;;15.77;3.30;;;9.80;99.90;;;;;;5132800;27;20015;-81
2024/01/02 04:20:07;;;;;;;18.33;3.53;;;9.70;99.90;;;;;;5115088;27;20023;-81
2024/01/02 04:22:33;;;;;;;18.20;3.40;;;9.70;99.90;;;;;;5134150;27;20174;-82
2024/01/02 04:24:58;;;;;;;16.77;3.40;;;9.60;99.90;;;;;;5132705;27;20134;-82
2024/01/02 04:27:24;;;;;;;19.70;3.70;;;9.60;99.90;;;;;;5132999;27;20452;-81
2024/01/02 04:29:50;;;;;;;21.63;3.22;;;9.60;99.90;;;;;;5132590;27;20026;-82
2024/01/02 04:32:16;;;;;;;22.85;3.97;;;9.60;99.90;;;;;;5132852;27;20394;-82
2024/01/02 04:34:42;;;;;;;20.92;3.05;;;9.50;99.90;;;;;;5132614;27;20023;-81
2024/01/02 04:37:08;;;;;;;15.00;3.20;;;9.50;99.90;;;;;;5114749;27;20106;-81
2024/01/02 04:39:33;;;;;;;19.08;3.30;;;9.50;99.90;;;;;;5132875;27;20092;-80
2024/01/02 04:42:00;;;;;;;18.38;2.83;;;9.50;99.90;;;;;;5114292;27;20019;-80
2024/01/02 04:44:27;;;;;;;16.33;2.90;;;9.50;99.90;;;;;;5133038;27;20049;-80
2024/01/02 04:46:52;;;;;;;22.50;3.38;;;9.40;99.90;;;;;;5132238;27;20024;-79
2024/01/02 04:49:18;;;;;;;17.38;3.25;;;9.40;99.90;;;;;;5133468;27;20088;-81
2024/01/02 04:51:44;;;;;;;22.50;4.43;;;9.50;99.90;;;;;;5131898;27;20023;-81
2024/01/02 04:54:10;;;;;;;22.25;4.13;;;9.50;99.90;;;;;;5132956;27;20046;-81
2024/01/02 04:56:36;;;;;;;21.73;3.47;;;9.60;99.90;;;;;;5133165;27;20019;-81
2024/01/02 04:59:02;;;;;;;22.27;3.33;;;9.60;99.90;;;;;;5132483;27;20019;-81
2024/01/02 05:01:28;;;;;;;23.10;3.70;;;9.60;99.90;;;;;;5114378;27;20019;-80
2024/01/02 05:03:54;;;;;;;21.25;3.72;;;9.60;99.90;;;;;;5113115;27;20172;-81
2024/01/02 05:06:20;;;;;;;17.95;3.88;;;9.60;99.90;;;;;;5132616;27;20470;-81
2024/01/02 05:08:46;;;;;;;23.08;3.75;;;9.60;99.90;;;;;;5132424;27;20471;-81
2024/01/02 05:11:12;;;;;;;16.77;3.58;;;9.60;99.90;;;;;;5132387;27;20023;-80
2024/01/02 05:13:38;;;;;;;22.73;3.65;;;9.60;99.90;;;;;;5133028;27;20416;-80
2024/01/02 05:16:04;;;;;;;17.35;3.70;;;9.60;99.90;;;;;;5132126;27;20029;-81
2024/01/02 05:18:29;;;;;;;23.27;3.55;;;9.60;99.90;;;;;;5097170;27;20106;-81
2024/01/02 05:20:55;;;;;;;19.67;3.80;;;9.60;99.90;;;;;;5114166;27;20023;-82
2024/01/02 05:23:21;;;;;;;18.65;3.47;;;9.60;99.90;;;;;;5133196;27;20031;-82
2024/01/02 05:25:46;;;;;;;17.95;3.28;;;9.60;99.90;;;;;;5131810;27;20052;-81
2024/01/02 05:28:12;;;;;;;18.98;3.60;;;9.60;99.90;;;;;;5133345;27;20444;-81
2024/01/02 05:30:38;;;;;;;26.75;3.42;;;9.60;99.90;;;;;;5132316;27;20027;-81
2024/01/02 05:33:04;;;;;;;20.77;3.80;;;9.70;99.90;;;;;;5113915;27;20027;-81
2024/01/02 05:35:30;;;;;;;24.08;4.22;;;9.70;99.90;;;;;;5132825;27;20143;-81
2024/01/02 05:37:55;;;;;;;17.38;2.83;;;9.80;99.90;;;;;;5132511;27;20080;-81
2024/01/02 05:40:21;;;;;;;31.58;4.55;;;9.70;99.90;;;;;;5133384;27;20471;-80
2024/01/02 05:42:47;;;;;;;17.98;3.45;;;9.70;99.90;;;;;;5132181;27;20178;-81
2024/01/02 05:45:13;;;;;;;20.85;3.38;;;9.70;99.90;;;;;;5132363;27;20450;-80
2024/01/02 05:47:38;;;;;;;22.27;4.13;;;9.70;99.90;;;;;;5133129;27;20452;-81
2024/01/02 05:50:06;;;;;;;17.17;3.80;;;9.70;99.90;;;;;;5133573;27;20019;-81
2024/01/02 05:52:32;;;;;;;15.57;3.42;;;9.70;99.90;;;;;;5115561;28;20549;-81
2024/01/02 05:54:57;;;;;;;16.63;3.97;;;9.70;99.90;;;;;;5113656;28;20046;-82
2024/01/02 05:57:23;;;;;;;21.05;4.28;;;9.70;99.90;;;;;;5133649;27;20073;-81
2024/01/02 05:59:49;;;;;;;18.90;3.65;;;9.70;99.90;;;;;;5114937;28;20031;-81
2024/01/02 06:02:16;;;;;;;17.90;3.22;;;9.60;99.90;;;;;;5133436;28;20405;-81
2024/01/02 06:04:41;;;;;;;19.92;3.50;;;9.60;99.90;;;;;;5133688;28;20058;-81
2024/01/02 06:07:07;;;;;;;18.67;3.20;;;9.60;99.90;;;;;;5114769;28;20067;-80
2024/01/02 06:09:33;;;;;;;20.25;3.30;;;9.60;99.90;;;;;;5115008;28;20064;-81
2024/01/02 06:11:58;;;;;;;18.38;2.83;;;9.60;99.90;;;;;;5132639;28;20347;-81
2024/01/02 06:14:24;;;;;;;20.52;3.70;;;9.60;99.90;;;;;;5115097;28;20102;-82
2024/01/02 06:16:50;;;;;;;16.25;3.03;;;9.60;99.90;;;;;;5115115;28;20404;-82
2024/01/02 06:19:18;;;;;;;21.83;3.55;;;9.60;99.90;;;;;;5134160;28;20023;-82
2024/01/02 06:21:44;;;;;;;23.42;3.20;;;9.60;99.90;;;;;;5134211;28;20133;-82
2024/01/02 06:24:10;;;;;;;20.55;4.10;;;9.60;99.90;;;;;;5134733;28;20537;-81
2024/01/02 06:26:36;;;;;;;18.95;3.28;;;9.60;99.90;;;;;;5116103;28;20023;-82
2024/01/02 06:29:02;;;;;;;15.85;3.42;;;9.50;99.90;;;;;;5134850;28;20469;-82
2024/01/02 06:31:28;;;;;;;24.63;4.22;;;9.60;99.90;;;;;;5135551;28;20023;-82
2024/01/02 06:33:53;;;;;;;17.42;4.03;;;9.60;99.90;;;;;;5135947;28;20030;-82
2024/01/02 06:36:19;;;;;;;20.10;3.40;;;9.60;99.90;;;;;;5135373;27;20023;-82
2024/01/02 06:38:45;;;;;;;20.42;3.25;;;9.60;99.90;;;;;;5140436;27;20434;-82
2024/01/02 06:41:11;;;;;;;17.42;3.80;;;9.70;99.90;;;;;;5119834;27;20068;-83
2024/01/02 06:43:37;;;;;;;20.20;3.25;;;9.70;99.90;;;;;;5118045;27;20028;-82
2024/01/02 06:46:03;;;;;;;22.17;3.78;;;9.70;99.90;;;;;;5118185;27;20110;-82
2024/01/02 06:48:29;;;;;;;22.45;4.15;;;9.70;99.90;;;;;;5136535;27;20015;-83
2024/01/02 06:50:55;;;;;;;14.75;2.95;;;9.70;99.90;;;;;;5143278;27;20027;-83
2024/01/02 06:53:20;;;;;;;15.10;2.85;;;9.70;99.90;;;;;;5124185;27;20130;-83
2024/01/02 06:55:46;;;;;;;15.60;2.90;;;9.70;99.90;;;;;;5136698;27;20408;-82
2024/01/02 06:58:12;;;;;;;12.60;2.92;;;9.70;99.90;;;;;;5117334;27;20398;-82
2024/01/02 07:00:38;;;;;;;17.02;2.92;;;9.70;99.90;;;;;;5135999;27;20023;-81
2024/01/02 07:03:04;;;;;;;13.30;3.15;;;9.70;99.90;;;;;;5116379;27;20023;-82
2024/01/02 07:05:30;;;;;;;17.45;3.20;;;9.70;99.90;;;;;;5135709;27;20141;-82
2024/01/02 07:07:56;;;;;;;17.80;3.17;;;9.70;99.90;;;;;;5135643;27;20101;-83
2024/01/02 07:10:24;;;;;;;16.63;3.08;;;9.70;99.90;;;;;;5135508;27;20023;-82
2024/01/02 07:12:50;;;;;;;20.45;3.45;;;9.60;99.90;;;;;;5134985;27;20159;-83
2024/01/02 07:15:16;;;;;;;15.73;3.05;;;9.60;99.90;;;;;;5135295;27;20209;-82
2024/01/02 07:17:43;;;;;;;11.10;3.00;;;9.50;99.90;;;;;;5117136;27;20434;-82
2024/01/02 07:20:09;;;;;;;13.55;2.53;;;9.50;99.90;;;;;;5134690;27;20086;-82
2024/01/02 07:22:35;;;;;;;10.15;2.78;;;9.50;99.90;;;;;;5134177;27;20068;-82
2024/01/02 07:25:01;;;;;;;12.93;3.03;;;9.50;99.90;;;;;;5134165;27;20326;-82
2024/01/02 07:27:27;;;;;;;18.00;3.53;;;9.50;99.90;;;;;;5134434;27;20098;-83
2024/01/02 07:29:53;;;;;;;11.50;2.78;;;9.40;99.90;;;;;;5114935;27;20027;-82
2024/01/02 07:32:19;;;;;;;18.23;3.47;;;9.50;99.90;;;;;;5134378;27;20020;-82
2024/01/02 07:34:45;;;;;;;14.95;2.85;;;9.40;99.90;;;;;;5115849;27;20022;-83
2024/01/02 07:37:14;;;;;;;12.75;3.47;;;9.40;99.90;;;;;;5133827;27;20023;-83
2024/01/02 07:39:41;;;;;;;21.00;3.55;;;9.40;99.90;;;;;;5134549;27;20517;-83
2024/01/02 07:42:10;;;;;;;17.27;3.50;;;9.50;99.90;;;;;;5133557;27;20096;-83
2024/01/02 07:44:36;;;;;;;13.85;2.85;;;9.50;99.90;;;;;;5135125;27;20405;-82
2024/01/02 07:47:02;;;;;;;19.63;4.32;;;9.50;99.90;;;;;;5133678;27;20057;-82
2024/01/02 07:49:27;;;;;;;22.42;5.18;;;9.50;99.90;;;;;;5134135;27;20046;-83
2024/01/02 07:51:54;;;;;;;22.70;5.50;;;9.40;99.90;;;;;;5133842;27;20023;-83
2024/01/02 07:54:20;;;;;;;15.40;4.00;;;9.50;99.90;;;;;;5111412;28;20035;-82
2024/01/02 07:56:46;;;;;;;17.23;4.22;;;9.40;99.90;;;;;;5113149;28;20337;-83
2024/01/02 07:59:15;;;;;;;16.23;3.85;;;9.50;99.90;;;;;;5111278;28;20031;-82
2024/01/02 08:01:41;;;;;;;15.40;3.45;;;9.40;99.90;;;;;;5113417;28;20043;-82
2024/01/02 08:04:07;;;;;;;20.75;3.40;;;9.50;99.90;;;;;;5112537;28;20084;-83
2024/01/02 08:06:33;;;;;;;15.50;3.50;;;9.40;99.90;;;;;;5111848;28;20019;-82
2024/01/02 08:08:58;;;;;;;16.42;4.10;;;9.40;99.90;;;;;;5112179;28;20022;-82
2024/01/02 08:11:24;;;;;;;18.85;3.67;;;9.40;99.90;;;;;;5113549;27;20376;-82
2024/01/02 08:13:50;;;;;;;18.27;3.85;;;9.40;99.90;;;;;;5112992;28;20028;-82
2024/01/02 08:16:16;;;;;;;13.43;2.92;;;9.50;99.90;;;;;;5111502;28;20019;-81
2024/01/02 08:18:43;;;;;;;15.93;3.58;;;9.40;99.90;;;;;;5113351;28;20202;-82
2024/01/02 08:21:09;;;;;;;15.88;3.15;;;9.40;99.90;;;;;;5113141;28;20019;-82
2024/01/02 08:23:38;;;;;;;13.25;3.78;;;9.40;99.90;;;;;;5113181;28;20102;-82
2024/01/02 08:26:15;;;;;;;12.68;3.08;;;9.30;99.90;;;;;;5110860;28;20028;-82
2024/01/02 08:28:41;;;;;;;13.65;3.47;;;9.40;99.90;;;;;;5112756;28;20019;-81
2024/01/02 08:31:07;;;;;;;17.50;3.45;;;9.30;99.90;;;;;;5112254;28;20030;-82
2024/01/02 08:33:33;;;;;;;15.02;3.83;;;9.40;99.90;;;;;;5113094;28;20028;-81
2024/01/02 08:35:59;;;;;;;17.30;3.85;;;9.30;99.90;;;;;;5112443;28;20023;-82
2024/01/02 08:38:25;;;;;;;18.10;3.72;;;9.30;99.90;;;;;;5112366;28;20103;-82
2024/01/02 08:40:50;;;;;;;22.50;4.22;;;9.30;99.90;;;;;;5111389;28;20015;-81
2024/01/02 08:43:17;;;;;;;15.27;3.83;;;9.30;99.90;;;;;;5110842;28;20374;-81
2024/01/02 08:45:44;;;;;;;16.00;3.30;;;9.30;99.90;;;;;;5111285;28;20020;-80
2024/01/02 08:48:14;;;;;;;18.40;3.60;;;9.30;99.90;;;;;;5110938;28;20058;-87
2024/01/02 08:50:43;;;;;;;19.80;4.25;;;9.30;99.90;;;;;;5110086;28;20158;-82
2024/01/02 08:53:10;;;;;;;16.58;3.53;;;9.30;99.90;;;;;;5100040;28;20024;-81
2024/01/02 08:55:36;;;;;;;17.63;4.00;;;9.30;99.90;;;;;;5123229;27;20015;-80
2024/01/02 08:58:05;;;;;;;16.95;3.25;;;9.30;99.90;;;;;;5129835;27;20052;-81
2024/01/02 09:00:31;;;;;;;14.90;2.97;;;9.30;99.90;;;;;;5132254;27;20336;-81
2024/01/02 09:03:01;;;;;;;15.15;3.33;;;9.30;99.90;;;;;;5113899;27;20532;-81
2024/01/02 09:05:26;;;;;;;16.15;3.22;;;9.30;99.90;;;;;;5114628;27;20563;-81
2024/01/02 09:07:53;;;;;;;10.82;2.97;;;9.30;99.90;;;;;;5140776;27;20102;-81
2024/01/02 09:10:19;;;;;;;16.88;3.28;;;9.30;99.90;;;;;;5139961;27;20534;-83
2024/01/02 09:12:45;;;;;;;11.75;2.95;;;9.20;99.90;;;;;;5118291;27;20023;-82
2024/01/02 09:15:10;;;;;;;20.80;4.03;;;9.30;99.90;;;;;;5117777;27;20022;-82
2024/01/02 09:17:36;;;;;;;20.83;5.20;;;9.30;99.90;;;;;;5138938;27;20038;-82
2024/01/02 09:20:06;;;;;;;24.63;4.60;;;9.20;99.90;;;;;;5132234;27;20026;-81
2024/01/02 09:22:34;;;;;;;27.23;4.50;;;9.20;99.90;;;;;;5131885;27;20046;-81
2024/01/02 09:25:00;;;;;;;17.58;4.55;;;9.20;99.90;;;;;;5113297;27;20062;-83
2024/01/02 09:27:30;;;;;;;19.63;4.65;;;9.30;99.90;;;;;;5113834;28;20051;-83
2024/01/02 09:29:59;;;;;;;17.58;3.25;;;9.20;99.90;;;;;;5131794;27;20102;-82
2024/01/02 09:32:25;;;;;;;24.60;4.45;;;9.30;99.90;;;;;;5132008;27;20031;-85
2024/01/02 09:34:52;;;;;;;17.80;3.67;;;9.30;99.90;;;;;;5113767;27;20026;-80
2024/01/02 09:37:18;;;;;;;17.10;4.28;;;9.30;99.90;;;;;;5131945;27;20054;-80
2024/01/02 09:39:44;;;;;;;16.33;3.92;;;9.20;99.90;;;;;;5132083;27;20050;-80
2024/01/02 09:42:37;;;;;;;20.38;4.32;;;9.30;99.90;;;;;;5131494;27;20019;-80
2024/01/02 09:45:12;;;;;;;;;;;9.30;99.90;;;;;;5122626;27;20027;-81
2024/01/02 09:47:58;;;;;;;18.75;4.13;;;9.30;99.90;;;;;;5119985;27;19932;-80
2024/01/02 09:50:39;;;;;;;12.75;3.63;;;9.30;99.90;;;;;;5113885;27;20026;-80
2024/01/02 09:53:16;;;;;;;17.20;4.30;;;9.30;99.90;;;;;;5111159;28;20019;-80
2024/01/02 09:55:51;;;;;;;12.40;3.35;;;9.30;99.90;;;;;;5111582;28;20039;-80
2024/01/02 09:58:32;;;;;;;12.40;3.50;;;9.30;99.90;;;;;;5110547;28;20045;-81
2024/01/02 10:01:08;;;;;;;16.20;3.92;;;9.40;99.90;;;;;;5111436;28;20024;-80
2024/01/02 10:03:37;;;;;;;17.33;3.90;;;9.40;99.90;;;;;;5092628;28;20071;-81
2024/01/02 10:06:16;;;;;;;12.07;4.32;;;9.30;99.90;;;;;;5110472;28;20024;-80
2024/01/02 10:08:57;;;;;;;14.07;3.70;;;9.40;99.90;;;;;;5100751;28;20023;-80
2024/01/02 10:11:44;;;;;;;15.55;3.78;;;9.40;99.90;;;;;;5123068;27;20020;-80
2024/01/02 10:14:25;;;;;;;20.98;4.13;;;9.30;99.90;;;;;;5114803;28;20024;-80
2024/01/02 10:17:28;;;;;;;12.25;3.50;;;9.50;99.90;;;;;;5115350;28;20041;-80
2024/01/02 10:20:15;;;;;;;23.50;5.22;;;9.40;99.90;;;;;;5112019;28;20044;-81
2024/01/02 10:22:56;;;;;;;30.17;5.57;;;9.40;99.90;;;;;;5115611;28;20129;-80
2024/01/02 10:25:22;;;;;;;26.45;5.78;;;9.40;99.90;;;;;;5114774;28;20119;-80
2024/01/02 10:28:18;;;;;;;17.63;4.40;;;9.40;99.90;;;;;;5098242;28;20035;-80
2024/01/02 10:31:15;;;;;;;14.95;3.78;;;9.50;99.90;;;;;;5116324;28;20023;-80
2024/01/02 10:33:58;;;;;;;16.58;4.40;;;9.50;99.90;;;;;;5109875;28;20042;-80
2024/01/02 10:36:26;;;;;;;23.95;5.85;;;9.60;99.90;;;;;;5115713;28;20119;-79
2024/01/02 10:39:04;;;;;;;17.48;6.38;;;9.60;99.90;;;;;;5116161;28;20122;-80
2024/01/02 10:41:33;;;;;;;22.92;6.13;;;9.60;99.90;;;;;;5116365;28;20114;-80
2024/01/02 10:44:06;;;;;;;13.13;4.75;;;9.50;99.90;;;;;;5115955;28;20020;-79
2024/01/02 10:47:00;;;;;;;19.23;5.88;;;9.50;99.90;;;;;;5116098;28;20030;-79
2024/01/02 10:49:40;;;;;;;25.17;5.80;;;9.60;99.90;;;;;;5112652;28;20062;-79
2024/01/02 10:52:14;;;;;;;31.10;8.02;;;9.70;99.90;;;;;;5115173;28;20023;-80
2024/01/02 10:54:51;;;;;;;23.88;6.82;;;9.60;99.90;;;;;;5115937;28;20422;-80
2024/01/02 10:57:36;;;;;;;16.10;6.15;;;9.60;99.90;;;;;;5114559;28;20015;-79
2024/01/02 11:00:12;;;;;;;20.25;7.20;;;9.50;99.90;;;;;;5115534;28;20031;-80
2024/01/02 11:02:51;;;;;;;12.98;5.85;;;9.60;99.90;;;;;;5096729;28;20468;-80
2024/01/02 11:05:31;;;;;;;15.05;5.38;;;9.70;99.90;;;;;;5096212;28;20050;-79
2024/01/02 11:08:06;;;;;;;16.25;4.70;;;9.80;99.90;;;;;;5126209;27;20456;-80
2024/01/02 11:10:38;;;;;;;17.98;4.85;;;9.70;99.90;;;;;;5139189;27;20015;-80
2024/01/02 11:13:08;;;;;;;14.43;4.05;;;9.90;99.90;;;;;;5133907;27;20049;-80
2024/01/02 11:15:41;;;;;;;14.90;3.58;;;9.80;99.90;;;;;;5135779;27;20106;-80
2024/01/02 11:18:07;;;;;;;14.57;3.50;;;9.90;99.90;;;;;;5135270;27;20030;-80
2024/01/02 11:21:01;;;;;;;12.25;3.03;;;10.00;99.90;;;;;;5135452;27;20031;-82
2024/01/02 11:23:30;;;;;;;13.35;3.03;;;10.00;99.90;;;;;;5133619;27;20019;-83
2024/01/02 11:26:06;;;;;;;12.10;2.88;;;10.10;99.90;;;;;;5135761;27;20030;-83
2024/01/02 11:28:36;;;;;;;13.88;3.25;;;10.10;99.90;;;;;;5135044;27;20356;-82
2024/01/02 11:31:04;;;;;;;13.85;3.42;;;10.00;99.90;;;;;;5134755;27;20016;-81
2024/01/02 11:33:48;;;;;;;12.15;2.97;;;10.00;99.90;;;;;;5134822;27;20167;-81
2024/01/02 11:36:26;;;;;;;14.88;3.45;;;10.00;99.90;;;;;;5134310;27;20019;-83
2024/01/02 11:38:55;;;;;;;13.30;3.70;;;10.00;99.90;;;;;;5135213;27;20042;-83
2024/01/02 11:41:21;;;;;;;14.85;2.92;;;10.10;99.90;;;;;;5133769;27;20125;-83
2024/01/02 11:44:28;;;;;;;12.75;3.17;;;9.90;99.90;;;;;;5134904;27;20118;-83
2024/01/02 11:47:04;;;;;;;12.77;2.90;;;9.90;99.90;;;;;;5078485;27;20074;-83
2024/01/02 11:49:32;;;;;;;16.35;3.42;;;9.90;99.90;;;;;;5116107;27;20068;-83
2024/01/02 11:52:11;;;;;;;17.95;3.15;;;10.00;99.90;;;;;;5134780;27;20030;-83
2024/01/02 11:54:48;;;;;;;14.98;3.90;;;10.00;99.90;;;;;;5134541;27;20039;-83
2024/01/02 11:57:46;;;;;;;11.90;2.97;;;9.90;99.90;;;;;;5134405;27;20054;-83
2024/01/02 12:00:37;;;;;;;14.25;3.35;;;10.00;99.90;;;;;;5134340;27;20023;-84
2024/01/02 12:03:25;;;;;;;12.95;3.05;;;9.80;99.90;;;;;;5110062;27;20046;-83
2024/01/02 12:05:57;;;;;;;16.35;2.83;;;10.00;99.90;;;;;;5135718;27;20023;-83
2024/01/02 12:08:29;;;;;;;12.25;2.80;;;9.90;99.90;;;;;;5116880;27;20019;-82
2024/01/02 12:11:01;;;;;;;17.20;3.17;;;9.90;99.90;;;;;;5135396;27;20133;-82
2024/01/02 12:13:50;;;;;;;15.65;3.50;;;9.80;99.90;;;;;;5134867;27;20079;-83
2024/01/02 12:16:19;;;;;;;11.73;2.78;;;9.80;99.90;;;;;;5134625;27;20047;-83
2024/01/02 12:18:49;;;;;;;15.73;3.58;;;9.80;99.90;;;;;;5135360;27;20031;-84
2024/01/02 12:21:22;;;;;;;12.02;3.33;;;9.80;99.90;;;;;;5134996;27;20019;-83
2024/01/02 12:23:49;;;;;;;18.17;3.45;;;9.90;99.90;;;;;;5135751;27;20373;-82
2024/01/02 12:26:20;;;;;;;18.52;3.47;;;9.90;99.90;;;;;;5115915;27;20113;-82
2024/01/02 12:28:45;;;;;;;14.60;3.05;;;9.90;99.90;;;;;;5116223;27;20102;-83
2024/01/02 12:31:29;;;;;;;14.10;3.70;;;9.70;99.90;;;;;;5134176;27;20098;-82
2024/01/02 12:34:06;;;;;;;8.55;2.63;;;9.90;99.90;;;;;;5134967;27;20026;-83
2024/01/02 12:36:43;;;;;;;13.45;3.45;;;9.80;99.90;;;;;;5134419;27;20043;-82
2024/01/02 12:39:10;;;;;;;15.32;3.55;;;9.80;99.90;;;;;;5134870;27;20047;-87
2024/01/02 12:41:41;;;;;;;13.07;3.17;;;9.60;99.90;;;;;;5116307;27;20034;-82
2024/01/02 12:44:08;;;;;;;18.55;4.25;;;9.70;99.90;;;;;;5115782;27;20079;-85
2024/01/02 12:46:49;;;;;;;14.77;3.03;;;9.60;99.90;;;;;;5134281;27;20023;-82
2024/01/02 12:49:19;;;;;;;10.32;3.20;;;9.60;99.90;;;;;;5137141;27;20028;-82
2024/01/02 12:51:46;;;;;;;21.65;4.18;;;9.50;99.90;;;;;;5117874;27;20034;-82
2024/01/02 12:54:15;;;;;;;13.10;2.90;;;9.50;99.90;;;;;;5107588;27;20035;-82